Ertholm — OVJX — position and weather

sailwx.info

Track history (hours):
 
Tides and Currents Weather Stations Pressure Air Temp Water Temp Dewpoint Dewpoint Depression Visibility Wind Speed Wind Dir Waves Ship Positions

Ertholm

Last reported at 2016-Aug-26 19:33 UTC. Time now 2016-Aug-26 20:02 UTC.
Position N 55°13' E 014°58'.

Length 38 m; draft 2.3 m.

Type: Ship. MMSI: 219000751.

Date/timePositionNaut miles runAvg speedWind from/ knotsBaromVisibWave heightAir tempDewpointWater temp
2016-Aug-26 19:33N 55°13' E 014°58'0 0.0
2016-Aug-26 18:33N 55°13' E 014°58'0 0.0
2016-Aug-26 17:34N 55°13' E 014°58'0 0.0
2016-Aug-26 16:34N 55°13' E 014°58'0 0.0
2016-Aug-26 15:34N 55°13' E 014°58'7 6.9
2016-Aug-26 14:34N 55°17' E 015°07'3 2.9
2016-Aug-26 13:34N 55°15' E 015°04'1 0.7
2016-Aug-26 12:34N 55°16' E 015°04'5 5.1
2016-Aug-26 11:33N 55°19' E 015°11'9 9.3
2016-Aug-26 10:34N 55°13' E 014°59'7 7.3
2016-Aug-26 09:34N 55°18' E 015°08'4 3.8
2016-Aug-26 08:34N 55°14' E 015°08'6 5.8
2016-Aug-26 07:34N 55°13' E 014°58'0 0.0
2016-Aug-26 06:34N 55°13' E 014°58'0 0.0
2016-Aug-26 04:34N 55°13' E 014°58'0 0.0
2016-Aug-26 03:34N 55°13' E 014°58'0 0.0
2016-Aug-26 02:34N 55°13' E 014°58'0 0.0
2016-Aug-26 01:33N 55°13' E 014°58'0 0.0
2016-Aug-26 00:34N 55°13' E 014°58'0 0.0
2016-Aug-25 23:34N 55°13' E 014°58'0 0.0
2016-Aug-25 22:33N 55°13' E 014°58'0 0.0
2016-Aug-25 21:34N 55°13' E 014°58'0 0.0
2016-Aug-25 20:33N 55°13' E 014°58'0 0.0
2016-Aug-25 19:33N 55°13' E 014°58'0 0.0
2016-Aug-25 18:33N 55°13' E 014°58'0 0.0
2016-Aug-25 17:34N 55°13' E 014°58'0 0.0
2016-Aug-25 16:33N 55°13' E 014°58'0 0.0
2016-Aug-25 15:33N 55°13' E 014°58'7 6.9
2016-Aug-25 14:34N 55°18' E 015°07'3 2.8
2016-Aug-25 13:34N 55°16' E 015°03'0 0.3
2016-Aug-25 12:33N 55°16' E 015°04'6 5.5
2016-Aug-25 11:34N 55°19' E 015°11'9 9.4
2016-Aug-25 10:34N 55°13' E 014°59'6 6.4
2016-Aug-25 09:34N 55°18' E 015°07'1 0.8
2016-Aug-25 08:33N 55°17' E 015°06'6 6.0
2016-Aug-25 07:33N 55°13' E 014°58'0 0.0
2016-Aug-25 06:34N 55°13' E 014°58'0 0.0
2016-Aug-25 04:34N 55°13' E 014°58'0 0.0
2016-Aug-25 03:34N 55°13' E 014°58'0 0.0
2016-Aug-25 02:33N 55°13' E 014°58'0 0.0
2016-Aug-25 01:33N 55°13' E 014°58'0 0.0
2016-Aug-25 00:33N 55°13' E 014°58'0 0.0
2016-Aug-24 23:34N 55°13' E 014°58'0 0.0
2016-Aug-24 22:33N 55°13' E 014°58'0 0.0
2016-Aug-24 21:33N 55°13' E 014°58'0 0.0
2016-Aug-24 20:33N 55°13' E 014°58'0 0.0
2016-Aug-24 19:33N 55°13' E 014°58'0 0.0
2016-Aug-24 18:34N 55°13' E 014°58'0 0.0
2016-Aug-24 17:33N 55°13' E 014°58'0 0.0
2016-Aug-24 16:34N 55°13' E 014°58'0 0.0
2016-Aug-24 15:33N 55°13' E 014°58'7 6.9
2016-Aug-24 14:34N 55°17' E 015°07'2 2.1
2016-Aug-24 13:34N 55°16' E 015°04'1 0.8
2016-Aug-24 12:33N 55°15' E 015°03'6 5.9
2016-Aug-24 11:34N 55°19' E 015°11'10 9.5
2016-Aug-24 10:34N 55°13' E 014°59'6 5.8
2016-Aug-24 09:33N 55°17' E 015°06'0 0.3
2016-Aug-24 08:34N 55°17' E 015°06'6 6.1
2016-Aug-24 07:34N 55°13' E 014°58'0 0.0
2016-Aug-24 06:34N 55°13' E 014°58'0 0.0
2016-Aug-24 04:33N 55°13' E 014°58'0 0.0
2016-Aug-24 03:33N 55°13' E 014°58'0 0.0
2016-Aug-24 02:34N 55°13' E 014°58'0 0.0
2016-Aug-24 01:34N 55°13' E 014°58'0 0.0
2016-Aug-24 00:34N 55°13' E 014°58'0 0.0
2016-Aug-23 23:34N 55°13' E 014°58'0 0.0
2016-Aug-23 22:33N 55°13' E 014°58'0 0.0
2016-Aug-23 21:34N 55°13' E 014°58'0 0.0
2016-Aug-23 20:33N 55°13' E 014°58'0 0.0
2016-Aug-23 19:34N 55°13' E 014°58'0 0.0
2016-Aug-23 18:34N 55°13' E 014°58'0 0.0
2016-Aug-23 17:34N 55°13' E 014°58'0 0.0
2016-Aug-23 16:34N 55°13' E 014°58'0 0.0
2016-Aug-23 15:34N 55°13' E 014°58'7 6.9
2016-Aug-23 14:34N 55°18' E 015°07'2 2.0
2016-Aug-23 13:33N 55°16' E 015°04'1 0.8
2016-Aug-23 12:33N 55°16' E 015°03'6 5.7
2016-Aug-23 11:34N 55°19' E 015°11'9 9.5
2016-Aug-23 10:34N 55°13' E 014°59'6 6.5
2016-Aug-23 09:34N 55°17' E 015°07'2 1.7
2016-Aug-23 08:34N 55°17' E 015°04'6 5.7
2016-Aug-23 07:34N 55°13' E 014°58'0 0.0
2016-Aug-23 06:34N 55°13' E 014°58'0 0.0
2016-Aug-23 05:34N 55°13' E 014°58'0 0.0
2016-Aug-23 04:33N 55°13' E 014°58'0 0.0
2016-Aug-23 03:33N 55°13' E 014°58'0 0.0
2016-Aug-23 02:34N 55°13' E 014°58'0 0.0
2016-Aug-23 01:34N 55°13' E 014°58'0 0.0
2016-Aug-23 00:33N 55°13' E 014°58'0 0.0
2016-Aug-22 23:34N 55°13' E 014°58'0 0.0
2016-Aug-22 22:33N 55°13' E 014°58'0 0.0
2016-Aug-22 21:34N 55°13' E 014°58'0 0.0
2016-Aug-22 20:34N 55°13' E 014°58'0 0.0
2016-Aug-22 19:33N 55°13' E 014°58'0 0.0
2016-Aug-22 18:34N 55°13' E 014°58'0 0.0
2016-Aug-22 17:33N 55°13' E 014°58'0 0.0
2016-Aug-22 16:33N 55°13' E 014°58'0 0.0
2016-Aug-22 15:34N 55°13' E 014°58'7 6.9
2016-Aug-22 14:34N 55°17' E 015°07'2 1.7
2016-Aug-22 13:34N 55°16' E 015°05'1 0.9
2016-Aug-22 12:34N 55°16' E 015°03'6 5.6
2016-Aug-22 11:34N 55°19' E 015°11'9 9.3
2016-Aug-22 10:34N 55°13' E 014°59'6 6.3
2016-Aug-22 09:34N 55°17' E 015°07'1 0.9
2016-Aug-22 08:34N 55°17' E 015°05'6 5.8
2016-Aug-22 07:34N 55°13' E 014°58'0 0.0
2016-Aug-22 06:33N 55°13' E 014°58'0 0.0
2016-Aug-22 05:34N 55°13' E 014°58'0 0.0
2016-Aug-22 04:34N 55°13' E 014°58'0 0.0
2016-Aug-22 03:34N 55°13' E 014°58'0 0.0
2016-Aug-22 02:34N 55°13' E 014°58'0 0.0
2016-Aug-22 01:34N 55°13' E 014°58'0 0.0
2016-Aug-22 00:34N 55°13' E 014°58'0 0.0
2016-Aug-21 23:33N 55°13' E 014°58'0 0.0
2016-Aug-21 22:34N 55°13' E 014°58'0 0.0
2016-Aug-21 21:33N 55°13' E 014°58'0 0.0
2016-Aug-21 20:33N 55°13' E 014°58'0 0.0
2016-Aug-21 19:34N 55°13' E 014°58'0 0.0
2016-Aug-21 18:34N 55°13' E 014°58'0 0.0
2016-Aug-21 17:34N 55°13' E 014°58'0 0.0
2016-Aug-21 16:33N 55°13' E 014°58'0 0.0
2016-Aug-21 15:34N 55°13' E 014°58'7 6.9
2016-Aug-21 14:33N 55°18' E 015°07'2 2.3
2016-Aug-21 13:33N 55°16' E 015°04'1 0.6
2016-Aug-21 12:34N 55°16' E 015°03'6 5.6
2016-Aug-21 11:33N 55°19' E 015°11'9 9.2
2016-Aug-21 10:34N 55°13' E 014°59'6 5.9
2016-Aug-21 09:34N 55°17' E 015°07'1 0.6
2016-Aug-21 08:34N 55°17' E 015°06'6 5.9
2016-Aug-21 07:34N 55°13' E 014°58'0 0.0
2016-Aug-21 06:34N 55°13' E 014°58'0 0.0
2016-Aug-21 05:33N 55°13' E 014°58'0 0.0
2016-Aug-21 04:34N 55°13' E 014°58'0 0.0
2016-Aug-21 03:33N 55°13' E 014°58'0 0.0
2016-Aug-21 02:34N 55°13' E 014°58'0 0.0
2016-Aug-21 01:33N 55°13' E 014°58'0 0.0
2016-Aug-21 00:33N 55°13' E 014°58'0 0.0
2016-Aug-20 23:33N 55°13' E 014°58'0 0.0
2016-Aug-20 22:34N 55°13' E 014°58'0 0.0
2016-Aug-20 21:33N 55°13' E 014°58'0 0.0
2016-Aug-20 20:33N 55°13' E 014°58'0 0.0
2016-Aug-20 19:33N 55°13' E 014°58'0 0.0
2016-Aug-20 18:33N 55°13' E 014°58'0 0.0
2016-Aug-20 17:33N 55°13' E 014°58'0 0.0
2016-Aug-20 16:33N 55°13' E 014°58'0 0.0
2016-Aug-20 15:33N 55°13' E 014°58'7 7.0
2016-Aug-20 14:33N 55°17' E 015°07'2 1.9
2016-Aug-20 13:33N 55°16' E 015°05'1 1.2
2016-Aug-20 12:33N 55°16' E 015°03'6 5.9
2016-Aug-20 11:34N 55°19' E 015°11'9 9.3
2016-Aug-20 10:34N 55°13' E 014°59'5 5.1
2016-Aug-20 09:34N 55°17' E 015°05'0 0.2
2016-Aug-20 08:34N 55°17' E 015°05'6 5.7
2016-Aug-20 07:33N 55°13' E 014°58'0 0.0
2016-Aug-20 06:33N 55°13' E 014°58'0 0.0
2016-Aug-20 05:33N 55°13' E 014°58'0 0.0
2016-Aug-20 04:33N 55°13' E 014°58'0 0.0
2016-Aug-20 03:34N 55°13' E 014°58'0 0.0
2016-Aug-20 02:33N 55°13' E 014°58'0 0.0
2016-Aug-20 01:33N 55°13' E 014°58'0 0.0
2016-Aug-20 00:34N 55°13' E 014°58'0 0.0
2016-Aug-19 23:34N 55°13' E 014°58'0 0.0
2016-Aug-19 22:33N 55°13' E 014°58'0 0.0
2016-Aug-19 21:34N 55°13' E 014°58'0 0.0
2016-Aug-19 20:34N 55°13' E 014°58'0 0.0
2016-Aug-19 19:34N 55°13' E 014°58'0 0.0
2016-Aug-19 18:33N 55°13' E 014°58'0 0.0
2016-Aug-19 17:34N 55°13' E 014°58'0 0.0
2016-Aug-19 16:33N 55°13' E 014°58'0 0.0
2016-Aug-19 15:34N 55°13' E 014°58'7 6.8
2016-Aug-19 14:34N 55°17' E 015°07'2 1.7
2016-Aug-19 13:34N 55°16' E 015°05'1 1.2
2016-Aug-19 12:34N 55°16' E 015°03'6 6.0
2016-Aug-19 11:34N 55°19' E 015°11'9 9.3
2016-Aug-19 10:34N 55°13' E 014°59'6 5.9
2016-Aug-19 09:34N 55°17' E 015°07'0 0.5
2016-Aug-19 08:34N 55°17' E 015°06'6 6.1
2016-Aug-19 07:33N 55°13' E 014°58'5 5.1
2016-Aug-19 06:33N 55°15' E 014°50'0 0.0
2016-Aug-19 02:05N 55°15' E 014°50'0 0.0
2016-Aug-19 01:27N 55°15' E 014°50'0 0.0
2016-Aug-18 23:25N 55°15' E 014°50'0 0.0
2016-Aug-18 22:28N 55°15' E 014°50'0 0.0
2016-Aug-18 21:28N 55°15' E 014°50'0 0.0
2016-Aug-18 20:33N 55°15' E 014°50'0 0.0
2016-Aug-18 19:26N 55°15' E 014°50'0 0.0
2016-Aug-18 18:31N 55°15' E 014°50'0 0.0
2016-Aug-18 17:33N 55°15' E 014°50'0 0.0
2016-Aug-18 16:33N 55°15' E 014°50'0 0.0
2016-Aug-18 15:30N 55°15' E 014°50'0 0.0
2016-Aug-18 14:31N 55°15' E 014°50'0 0.0
2016-Aug-18 13:33N 55°15' E 014°50'1 1.2
2016-Aug-18 12:34N 55°16' E 014°52'1211.5
2016-Aug-18 11:34N 55°19' E 015°11'0 0.2
2016-Aug-18 10:34N 55°19' E 015°11'5 4.9
2016-Aug-18 09:34N 55°18' E 015°03'8 7.8
2016-Aug-18 08:33N 55°15' E 014°50'0 0.0
2016-Aug-18 07:33N 55°15' E 014°50'0 0.0
2016-Aug-18 06:33N 55°15' E 014°50'0 0.0
2016-Aug-18 05:33N 55°15' E 014°50'0 0.0
2016-Aug-18 04:33N 55°15' E 014°50'0 0.0
2016-Aug-18 03:33N 55°15' E 014°50'0 0.0
2016-Aug-18 02:33N 55°15' E 014°50'0 0.0
2016-Aug-18 01:28N 55°15' E 014°50'0 0.0
2016-Aug-17 23:31N 55°15' E 014°50'0 0.0
2016-Aug-17 22:33N 55°15' E 014°50'0 0.0
2016-Aug-17 21:32N 55°15' E 014°50'0 0.0
2016-Aug-17 20:33N 55°15' E 014°50'0 0.0
2016-Aug-17 19:33N 55°15' E 014°50'0 0.0
2016-Aug-17 18:33N 55°15' E 014°50'0 0.0
2016-Aug-17 17:33N 55°15' E 014°50'0 0.0
2016-Aug-17 16:33N 55°15' E 014°50'2 2.5
2016-Aug-17 15:33N 55°14' E 014°54'8 8.2
2016-Aug-17 14:33N 55°18' E 015°07'3 2.8
2016-Aug-17 13:34N 55°16' E 015°04'0 0.2
2016-Aug-17 12:33N 55°15' E 015°03'6 5.8
2016-Aug-17 11:34N 55°19' E 015°11'10 9.8
2016-Aug-17 10:34N 55°13' E 014°58'6 6.2
2016-Aug-17 09:34N 55°17' E 015°06'1 0.5
2016-Aug-17 08:34N 55°17' E 015°05'6 5.9
2016-Aug-17 07:33N 55°13' E 014°58'0 0.0
2016-Aug-17 06:34N 55°13' E 014°58'0 0.0
2016-Aug-17 05:33N 55°13' E 014°58'0 0.0
2016-Aug-17 04:34N 55°13' E 014°58'0 0.0
2016-Aug-17 03:34N 55°13' E 014°58'0 0.0
2016-Aug-17 02:33N 55°13' E 014°58'0 0.0
2016-Aug-17 01:34N 55°13' E 014°58'0 0.0
2016-Aug-17 00:33N 55°13' E 014°58'0 0.0
2016-Aug-16 23:33N 55°13' E 014°58'0 0.0
2016-Aug-16 22:33N 55°13' E 014°58'0 0.0
2016-Aug-16 21:34N 55°13' E 014°58'0 0.0
2016-Aug-16 20:33N 55°13' E 014°58'0 0.0
2016-Aug-16 19:34N 55°13' E 014°58'  
Track history (hours):
 
Tides and Currents Weather Stations Pressure Air Temp Water Temp Dewpoint Dewpoint Depression Visibility Wind Speed Wind Dir Waves Ship Positions

Ertholm

Last reported at 2016-Aug-26 19:33 UTC. Time now 2016-Aug-26 20:02 UTC.
Position N 55°13' E 014°58'.

Length 38 m; draft 2.3 m.

Type: Ship. MMSI: 219000751.

Date/timePositionNaut miles runAvg speedWind from/ knotsBaromVisibWave heightAir tempDewpointWater temp
2016-Aug-26 19:33N 55°13' E 014°58'0 0.0
2016-Aug-26 18:33N 55°13' E 014°58'0 0.0
2016-Aug-26 17:34N 55°13' E 014°58'0 0.0
2016-Aug-26 16:34N 55°13' E 014°58'0 0.0
2016-Aug-26 15:34N 55°13' E 014°58'7 6.9
2016-Aug-26 14:34N 55°17' E 015°07'3 2.9
2016-Aug-26 13:34N 55°15' E 015°04'1 0.7
2016-Aug-26 12:34N 55°16' E 015°04'5 5.1
2016-Aug-26 11:33N 55°19' E 015°11'9 9.3
2016-Aug-26 10:34N 55°13' E 014°59'7 7.3
2016-Aug-26 09:34N 55°18' E 015°08'4 3.8
2016-Aug-26 08:34N 55°14' E 015°08'6 5.8
2016-Aug-26 07:34N 55°13' E 014°58'0 0.0
2016-Aug-26 06:34N 55°13' E 014°58'0 0.0
2016-Aug-26 04:34N 55°13' E 014°58'0 0.0
2016-Aug-26 03:34N 55°13' E 014°58'0 0.0
2016-Aug-26 02:34N 55°13' E 014°58'0 0.0
2016-Aug-26 01:33N 55°13' E 014°58'0 0.0
2016-Aug-26 00:34N 55°13' E 014°58'0 0.0
2016-Aug-25 23:34N 55°13' E 014°58'0 0.0
2016-Aug-25 22:33N 55°13' E 014°58'0 0.0
2016-Aug-25 21:34N 55°13' E 014°58'0 0.0
2016-Aug-25 20:33N 55°13' E 014°58'0 0.0
2016-Aug-25 19:33N 55°13' E 014°58'0 0.0
2016-Aug-25 18:33N 55°13' E 014°58'0 0.0
2016-Aug-25 17:34N 55°13' E 014°58'0 0.0
2016-Aug-25 16:33N 55°13' E 014°58'0 0.0
2016-Aug-25 15:33N 55°13' E 014°58'7 6.9
2016-Aug-25 14:34N 55°18' E 015°07'3 2.8
2016-Aug-25 13:34N 55°16' E 015°03'0 0.3
2016-Aug-25 12:33N 55°16' E 015°04'6 5.5
2016-Aug-25 11:34N 55°19' E 015°11'9 9.4
2016-Aug-25 10:34N 55°13' E 014°59'6 6.4
2016-Aug-25 09:34N 55°18' E 015°07'1 0.8
2016-Aug-25 08:33N 55°17' E 015°06'6 6.0
2016-Aug-25 07:33N 55°13' E 014°58'0 0.0
2016-Aug-25 06:34N 55°13' E 014°58'0 0.0
2016-Aug-25 04:34N 55°13' E 014°58'0 0.0
2016-Aug-25 03:34N 55°13' E 014°58'0 0.0
2016-Aug-25 02:33N 55°13' E 014°58'0 0.0
2016-Aug-25 01:33N 55°13' E 014°58'0 0.0
2016-Aug-25 00:33N 55°13' E 014°58'0 0.0
2016-Aug-24 23:34N 55°13' E 014°58'0 0.0
2016-Aug-24 22:33N 55°13' E 014°58'0 0.0
2016-Aug-24 21:33N 55°13' E 014°58'0 0.0
2016-Aug-24 20:33N 55°13' E 014°58'0 0.0
2016-Aug-24 19:33N 55°13' E 014°58'0 0.0
2016-Aug-24 18:34N 55°13' E 014°58'0 0.0
2016-Aug-24 17:33N 55°13' E 014°58'0 0.0
2016-Aug-24 16:34N 55°13' E 014°58'0 0.0
2016-Aug-24 15:33N 55°13' E 014°58'7 6.9
2016-Aug-24 14:34N 55°17' E 015°07'2 2.1
2016-Aug-24 13:34N 55°16' E 015°04'1 0.8
2016-Aug-24 12:33N 55°15' E 015°03'6 5.9
2016-Aug-24 11:34N 55°19' E 015°11'10 9.5
2016-Aug-24 10:34N 55°13' E 014°59'6 5.8
2016-Aug-24 09:33N 55°17' E 015°06'0 0.3
2016-Aug-24 08:34N 55°17' E 015°06'6 6.1
2016-Aug-24 07:34N 55°13' E 014°58'0 0.0
2016-Aug-24 06:34N 55°13' E 014°58'0 0.0
2016-Aug-24 04:33N 55°13' E 014°58'0 0.0
2016-Aug-24 03:33N 55°13' E 014°58'0 0.0
2016-Aug-24 02:34N 55°13' E 014°58'0 0.0
2016-Aug-24 01:34N 55°13' E 014°58'0 0.0
2016-Aug-24 00:34N 55°13' E 014°58'0 0.0
2016-Aug-23 23:34N 55°13' E 014°58'0 0.0
2016-Aug-23 22:33N 55°13' E 014°58'0 0.0
2016-Aug-23 21:34N 55°13' E 014°58'0 0.0
2016-Aug-23 20:33N 55°13' E 014°58'0 0.0
2016-Aug-23 19:34N 55°13' E 014°58'0 0.0
2016-Aug-23 18:34N 55°13' E 014°58'0 0.0
2016-Aug-23 17:34N 55°13' E 014°58'0 0.0
2016-Aug-23 16:34N 55°13' E 014°58'0 0.0
2016-Aug-23 15:34N 55°13' E 014°58'7 6.9
2016-Aug-23 14:34N 55°18' E 015°07'2 2.0
2016-Aug-23 13:33N 55°16' E 015°04'1 0.8
2016-Aug-23 12:33N 55°16' E 015°03'6 5.7
2016-Aug-23 11:34N 55°19' E 015°11'9 9.5
2016-Aug-23 10:34N 55°13' E 014°59'6 6.5
2016-Aug-23 09:34N 55°17' E 015°07'2 1.7
2016-Aug-23 08:34N 55°17' E 015°04'6 5.7
2016-Aug-23 07:34N 55°13' E 014°58'0 0.0
2016-Aug-23 06:34N 55°13' E 014°58'0 0.0
2016-Aug-23 05:34N 55°13' E 014°58'0 0.0
2016-Aug-23 04:33N 55°13' E 014°58'0 0.0
2016-Aug-23 03:33N 55°13' E 014°58'0 0.0
2016-Aug-23 02:34N 55°13' E 014°58'0 0.0
2016-Aug-23 01:34N 55°13' E 014°58'0 0.0
2016-Aug-23 00:33N 55°13' E 014°58'0 0.0
2016-Aug-22 23:34N 55°13' E 014°58'0 0.0
2016-Aug-22 22:33N 55°13' E 014°58'0 0.0
2016-Aug-22 21:34N 55°13' E 014°58'0 0.0
2016-Aug-22 20:34N 55°13' E 014°58'0 0.0
2016-Aug-22 19:33N 55°13' E 014°58'0 0.0
2016-Aug-22 18:34N 55°13' E 014°58'0 0.0
2016-Aug-22 17:33N 55°13' E 014°58'0 0.0
2016-Aug-22 16:33N 55°13' E 014°58'0 0.0
2016-Aug-22 15:34N 55°13' E 014°58'7 6.9
2016-Aug-22 14:34N 55°17' E 015°07'2 1.7
2016-Aug-22 13:34N 55°16' E 015°05'1 0.9
2016-Aug-22 12:34N 55°16' E 015°03'6 5.6
2016-Aug-22 11:34N 55°19' E 015°11'9 9.3
2016-Aug-22 10:34N 55°13' E 014°59'6 6.3
2016-Aug-22 09:34N 55°17' E 015°07'1 0.9
2016-Aug-22 08:34N 55°17' E 015°05'6 5.8
2016-Aug-22 07:34N 55°13' E 014°58'0 0.0
2016-Aug-22 06:33N 55°13' E 014°58'0 0.0
2016-Aug-22 05:34N 55°13' E 014°58'0 0.0
2016-Aug-22 04:34N 55°13' E 014°58'0 0.0
2016-Aug-22 03:34N 55°13' E 014°58'0 0.0
2016-Aug-22 02:34N 55°13' E 014°58'0 0.0
2016-Aug-22 01:34N 55°13' E 014°58'0 0.0
2016-Aug-22 00:34N 55°13' E 014°58'0 0.0
2016-Aug-21 23:33N 55°13' E 014°58'0 0.0
2016-Aug-21 22:34N 55°13' E 014°58'0 0.0
2016-Aug-21 21:33N 55°13' E 014°58'0 0.0
2016-Aug-21 20:33N 55°13' E 014°58'0 0.0
2016-Aug-21 19:34N 55°13' E 014°58'0 0.0
2016-Aug-21 18:34N 55°13' E 014°58'0 0.0
2016-Aug-21 17:34N 55°13' E 014°58'0 0.0
2016-Aug-21 16:33N 55°13' E 014°58'0 0.0
2016-Aug-21 15:34N 55°13' E 014°58'7 6.9
2016-Aug-21 14:33N 55°18' E 015°07'2 2.3
2016-Aug-21 13:33N 55°16' E 015°04'1 0.6
2016-Aug-21 12:34N 55°16' E 015°03'6 5.6
2016-Aug-21 11:33N 55°19' E 015°11'9 9.2
2016-Aug-21 10:34N 55°13' E 014°59'6 5.9
2016-Aug-21 09:34N 55°17' E 015°07'1 0.6
2016-Aug-21 08:34N 55°17' E 015°06'6 5.9
2016-Aug-21 07:34N 55°13' E 014°58'0 0.0
2016-Aug-21 06:34N 55°13' E 014°58'0 0.0
2016-Aug-21 05:33N 55°13' E 014°58'0 0.0
2016-Aug-21 04:34N 55°13' E 014°58'0 0.0
2016-Aug-21 03:33N 55°13' E 014°58'0 0.0
2016-Aug-21 02:34N 55°13' E 014°58'0 0.0
2016-Aug-21 01:33N 55°13' E 014°58'0 0.0
2016-Aug-21 00:33N 55°13' E 014°58'0 0.0
2016-Aug-20 23:33N 55°13' E 014°58'0 0.0
2016-Aug-20 22:34N 55°13' E 014°58'0 0.0
2016-Aug-20 21:33N 55°13' E 014°58'0 0.0
2016-Aug-20 20:33N 55°13' E 014°58'0 0.0
2016-Aug-20 19:33N 55°13' E 014°58'0 0.0
2016-Aug-20 18:33N 55°13' E 014°58'0 0.0
2016-Aug-20 17:33N 55°13' E 014°58'0 0.0
2016-Aug-20 16:33N 55°13' E 014°58'0 0.0
2016-Aug-20 15:33N 55°13' E 014°58'7 7.0
2016-Aug-20 14:33N 55°17' E 015°07'2 1.9
2016-Aug-20 13:33N 55°16' E 015°05'1 1.2
2016-Aug-20 12:33N 55°16' E 015°03'6 5.9
2016-Aug-20 11:34N 55°19' E 015°11'9 9.3
2016-Aug-20 10:34N 55°13' E 014°59'5 5.1
2016-Aug-20 09:34N 55°17' E 015°05'0 0.2
2016-Aug-20 08:34N 55°17' E 015°05'6 5.7
2016-Aug-20 07:33N 55°13' E 014°58'0 0.0
2016-Aug-20 06:33N 55°13' E 014°58'0 0.0
2016-Aug-20 05:33N 55°13' E 014°58'0 0.0
2016-Aug-20 04:33N 55°13' E 014°58'0 0.0
2016-Aug-20 03:34N 55°13' E 014°58'0 0.0
2016-Aug-20 02:33N 55°13' E 014°58'0 0.0
2016-Aug-20 01:33N 55°13' E 014°58'0 0.0
2016-Aug-20 00:34N 55°13' E 014°58'0 0.0
2016-Aug-19 23:34N 55°13' E 014°58'0 0.0
2016-Aug-19 22:33N 55°13' E 014°58'0 0.0
2016-Aug-19 21:34N 55°13' E 014°58'0 0.0
2016-Aug-19 20:34N 55°13' E 014°58'0 0.0
2016-Aug-19 19:34N 55°13' E 014°58'0 0.0
2016-Aug-19 18:33N 55°13' E 014°58'0 0.0
2016-Aug-19 17:34N 55°13' E 014°58'0 0.0
2016-Aug-19 16:33N 55°13' E 014°58'0 0.0
2016-Aug-19 15:34N 55°13' E 014°58'7 6.8
2016-Aug-19 14:34N 55°17' E 015°07'2 1.7
2016-Aug-19 13:34N 55°16' E 015°05'1 1.2
2016-Aug-19 12:34N 55°16' E 015°03'6 6.0
2016-Aug-19 11:34N 55°19' E 015°11'9 9.3
2016-Aug-19 10:34N 55°13' E 014°59'6 5.9
2016-Aug-19 09:34N 55°17' E 015°07'0 0.5
2016-Aug-19 08:34N 55°17' E 015°06'6 6.1
2016-Aug-19 07:33N 55°13' E 014°58'5 5.1
2016-Aug-19 06:33N 55°15' E 014°50'0 0.0
2016-Aug-19 02:05N 55°15' E 014°50'0 0.0
2016-Aug-19 01:27N 55°15' E 014°50'0 0.0
2016-Aug-18 23:25N 55°15' E 014°50'0 0.0
2016-Aug-18 22:28N 55°15' E 014°50'0 0.0
2016-Aug-18 21:28N 55°15' E 014°50'0 0.0
2016-Aug-18 20:33N 55°15' E 014°50'0 0.0
2016-Aug-18 19:26N 55°15' E 014°50'0 0.0
2016-Aug-18 18:31N 55°15' E 014°50'0 0.0
2016-Aug-18 17:33N 55°15' E 014°50'0 0.0
2016-Aug-18 16:33N 55°15' E 014°50'0 0.0
2016-Aug-18 15:30N 55°15' E 014°50'0 0.0
2016-Aug-18 14:31N 55°15' E 014°50'0 0.0
2016-Aug-18 13:33N 55°15' E 014°50'1 1.2
2016-Aug-18 12:34N 55°16' E 014°52'1211.5
2016-Aug-18 11:34N 55°19' E 015°11'0 0.2
2016-Aug-18 10:34N 55°19' E 015°11'5 4.9
2016-Aug-18 09:34N 55°18' E 015°03'8 7.8
2016-Aug-18 08:33N 55°15' E 014°50'0 0.0
2016-Aug-18 07:33N 55°15' E 014°50'0 0.0
2016-Aug-18 06:33N 55°15' E 014°50'0 0.0
2016-Aug-18 05:33N 55°15' E 014°50'0 0.0
2016-Aug-18 04:33N 55°15' E 014°50'0 0.0
2016-Aug-18 03:33N 55°15' E 014°50'0 0.0
2016-Aug-18 02:33N 55°15' E 014°50'0 0.0
2016-Aug-18 01:28N 55°15' E 014°50'0 0.0
2016-Aug-17 23:31N 55°15' E 014°50'0 0.0
2016-Aug-17 22:33N 55°15' E 014°50'0 0.0
2016-Aug-17 21:32N 55°15' E 014°50'0 0.0
2016-Aug-17 20:33N 55°15' E 014°50'0 0.0
2016-Aug-17 19:33N 55°15' E 014°50'0 0.0
2016-Aug-17 18:33N 55°15' E 014°50'0 0.0
2016-Aug-17 17:33N 55°15' E 014°50'0 0.0
2016-Aug-17 16:33N 55°15' E 014°50'2 2.5
2016-Aug-17 15:33N 55°14' E 014°54'8 8.2
2016-Aug-17 14:33N 55°18' E 015°07'3 2.8
2016-Aug-17 13:34N 55°16' E 015°04'0 0.2
2016-Aug-17 12:33N 55°15' E 015°03'6 5.8
2016-Aug-17 11:34N 55°19' E 015°11'10 9.8
2016-Aug-17 10:34N 55°13' E 014°58'6 6.2
2016-Aug-17 09:34N 55°17' E 015°06'1 0.5
2016-Aug-17 08:34N 55°17' E 015°05'6 5.9
2016-Aug-17 07:33N 55°13' E 014°58'0 0.0
2016-Aug-17 06:34N 55°13' E 014°58'0 0.0
2016-Aug-17 05:33N 55°13' E 014°58'0 0.0
2016-Aug-17 04:34N 55°13' E 014°58'0 0.0
2016-Aug-17 03:34N 55°13' E 014°58'0 0.0
2016-Aug-17 02:33N 55°13' E 014°58'0 0.0
2016-Aug-17 01:34N 55°13' E 014°58'0 0.0
2016-Aug-17 00:33N 55°13' E 014°58'0 0.0
2016-Aug-16 23:33N 55°13' E 014°58'0 0.0
2016-Aug-16 22:33N 55°13' E 014°58'0 0.0
2016-Aug-16 21:34N 55°13' E 014°58'0 0.0
2016-Aug-16 20:33N 55°13' E 014°58'0 0.0
2016-Aug-16 19:34N 55°13' E 014°58'  

Dump ship's entire track history